Latest Weather Observations for Norseman Airport

IDW60801

Issued at 7:03 pm WST Monday 22 December 2014 (issued every 30 minutes, with the page automatically refreshed every 10 minutes)

About weather observations | Map of weather stations | Latest weather observations for WA | Other Formats
Station Details ID: 012009 Name: NORSEMAN AERO Lat: -32.21 Lon: 121.75 Height: 262.5 m
Data from the previous 72 hours. | See also: Recent months at Norseman Airport
Date/Time
WST
Temp
°C
App
Temp
°C
Dew
Point
Rel
Hum
%
Delta-T
°C
Wind Press
QNH
hPa
Press
MSL
hPa
Rain
since 9 am
mm
Dir
 
Spd
km/h
Gust
km/h
Spd
kts
Gust
kts
22/07:00pm 20.3 19.5 11.8 58 4.8 SSE 7 9 4 5 1016.7 1015.6 0.0
22/06:30pm 21.7 19.6 11.1 51 5.9 SSE 13 17 7 9 1016.5 1015.4 0.0
22/06:00pm 22.4 20.7 11.2 49 6.3 SSE 11 20 6 11 1016.2 1015.1 0.0
22/05:30pm 22.6 20.7 11.7 50 6.2 S 13 20 7 11 1016.0 1014.9 0.0
22/05:00pm 23.4 22.3 11.8 48 6.6 SSE 9 15 5 8 1015.8 1014.7 0.0
22/04:30pm 23.0 20.2 11.4 48 6.6 SSW 17 22 9 12 1015.7 1014.5 0.0
22/04:00pm 22.2 21.0 11.6 51 6.0 SSE 9 15 5 8 1015.8 1014.7 0.0
22/03:30pm 22.2 21.8 13.0 56 5.3 S 7 13 4 7 1015.9 1014.8 0.0
22/03:00pm 21.8 19.8 12.6 56 5.3 SSE 15 19 8 10 1016.3 1015.2 0.0
22/02:30pm 21.6 20.5 13.2 59 4.9 SSE 11 24 6 13 1016.4 1015.3 0.0
22/02:00pm 21.6 21.4 14.7 65 4.1 S 9 15 5 8 1016.6 1015.5 0.0
22/01:30pm 20.7 20.4 13.2 62 4.3 S 7 15 4 8 1016.8 1015.7 0.0
22/01:00pm 20.6 20.4 13.6 64 4.1 SE 7 13 4 7 1017.1 1016.0 0.0
22/12:30pm 19.9 19.3 13.6 67 3.7 SSE 9 13 5 7 1017.4 1016.3 0.0
22/12:00pm 19.9 19.2 13.1 65 3.9 WSW 9 13 5 7 1017.7 1016.6 0.0
22/11:30am 19.4 17.8 12.9 66 3.7 SW 13 17 7 9 1017.9 1016.8 0.0
22/11:00am 19.1 17.9 12.8 67 3.6 WSW 11 17 6 9 1018.2 1017.1 0.0
22/10:30am 18.6 17.5 13.0 70 3.2 SSW 11 19 6 10 1018.3 1017.2 0.0
22/10:00am 18.6 17.9 13.2 71 3.1 SW 9 15 5 8 1018.4 1017.3 0.0
22/09:30am 18.7 18.1 13.6 72 2.9 SSE 9 19 5 10 1018.4 1017.3 0.0
22/09:00am 18.1 17.3 14.0 77 2.4 SE 11 15 6 8 1018.5 1017.4 6.4
22/08:30am 17.6 17.1 13.7 78 2.2 SE 9 17 5 9 1018.4 1017.3 6.4
22/08:00am 17.4 16.8 14.5 83 1.7 SSE 11 15 6 8 1018.4 1017.3 6.4
22/07:30am 16.8 16.3 13.9 83 1.7 SSE 9 15 5 8 1018.2 1017.1 6.4
22/07:00am 16.5 15.9 14.5 88 1.2 SE 11 17 6 9 1018.0 1016.9 6.4
22/06:30am 16.0 16.1 15.4 96 0.4 SSE 9 11 5 6 1017.7 1016.6 6.4
22/06:00am 15.7 16.2 15.5 99 0.1 S 7 11 4 6 1017.4 1016.3 6.4
22/05:30am 15.4 15.8 15.2 99 0.1 S 7 13 4 7 1017.1 1016.0 6.4
22/05:00am 15.4 14.6 15.2 99 0.1 S 13 17 7 9 1016.8 1015.7 6.4
22/04:30am 15.4 15.4 15.2 99 0.1 S 9 13 5 7 1016.7 1015.6 6.4
22/04:00am 15.5 15.5 15.3 99 0.1 S 9 11 5 6 1016.4 1015.3 6.4
22/03:30am 15.5 15.2 15.5 100 0.0 SSE 11 17 6 9 1016.4 1015.3 6.4
22/03:00am 15.5 16.0 15.5 100 0.0 S 7 9 4 5 1016.3 1015.2 6.4
22/02:30am 15.6 16.0 15.4 99 0.1 S 7 7 4 4 1016.4 1015.3 5.8
22/02:00am 15.7 15.7 15.2 97 0.3 SSE 9 13 5 7 1016.3 1015.2 5.8
22/01:30am 15.7 15.7 15.1 96 0.4 S 9 15 5 8 1016.7 1015.6 5.8
22/01:00am 15.8 15.6 14.7 93 0.6 SSE 9 13 5 7 1016.7 1015.6 5.8
22/12:30am 16.2 16.5 14.9 92 0.8 S 7 9 4 5 1017.3 1016.2 5.8
22/12:00am 16.4 16.4 15.1 92 0.8 SSE 9 17 5 9 1017.5 1016.4 5.8
 
Date/Time
WST
Temp
°C
App
Temp
°C
Dew
Point
Rel
Hum
%
Delta-T
°C
Wind Press
QNH
hPa
Press
MSL
hPa
Rain
since 9 am
mm
Dir
 
Spd
km/h
Gust
km/h
Spd
kts
Gust
kts
21/11:30pm 16.4 16.0 15.1 92 0.8 S 11 17 6 9 1017.7 1016.6 5.8
21/11:00pm 16.4 15.3 15.3 93 0.6 S 15 20 8 11 1017.8 1016.7 5.8
21/10:30pm 16.7 15.2 15.4 92 0.8 S 17 22 9 12 1017.6 1016.5 5.8
21/10:00pm 16.9 15.9 15.6 92 0.8 SSE 15 22 8 12 1017.3 1016.2 5.8
21/09:30pm 17.3 17.5 16.8 97 0.3 S 11 15 6 8 1017.4 1016.3 5.8
21/09:00pm 17.7 18.7 17.7 100 0.0 S 9 15 5 8 1017.1 1016.0 5.8
21/08:30pm 17.8 20.5 17.8 100 0.0 CALM 0 0 0 0 1016.7 1015.6 5.8
21/08:00pm 17.7 20.0 17.7 100 0.0 SSE 2 7 1 4 1016.4 1015.3 5.8
21/07:30pm 17.6 18.9 17.6 100 0.0 SSW 7 9 4 5 1016.2 1015.1 5.8
21/07:00pm 17.6 20.2 17.6 100 0.0 CALM 0 0 0 0 1015.9 1014.8 5.8
21/06:30pm 17.3 19.4 17.3 100 0.0 ESE 2 7 1 4 1015.6 1014.4 5.6
21/06:00pm 17.3 17.7 17.3 100 0.0 SSE 11 20 6 11 1015.5 1014.3 5.0
21/05:30pm 17.6 16.9 17.4 99 0.1 SSW 17 20 9 11 1015.2 1014.0 4.0
21/05:00pm 19.0 20.3 17.0 88 1.2 NE 6 11 3 6 1014.8 1013.7 3.0
21/04:30pm 19.2 21.6 17.9 92 0.8 NE 2 6 1 3 1014.6 1013.5 3.0
21/04:00pm 19.1 22.0 18.3 95 0.5 CALM 0 6 0 3 1014.4 1013.3 3.0
21/03:30pm 18.8 20.9 17.3 91 0.9 SW 2 6 1 3 1014.5 1013.4 2.6
21/03:00pm 18.8 19.8 16.9 89 1.2 S 7 11 4 6 1014.6 1013.5 2.2
21/02:30pm 18.9 18.6 16.5 86 1.5 SSE 13 19 7 10 1014.6 1013.5 2.2
21/02:00pm 19.2 20.1 16.6 85 1.6 ESE 7 11 4 6 1014.8 1013.7 2.0
21/01:30pm 18.8 18.0 16.2 85 1.6 S 15 26 8 14 1014.9 1013.8 2.0
21/01:00pm 19.5 18.3 16.2 81 2.0 S 17 24 9 13 1015.3 1014.1 2.0
21/12:30pm 19.2 19.8 16.8 86 1.5 S 9 17 5 9 1015.3 1014.1 2.0
21/12:00pm 18.4 17.6 16.0 86 1.4 S 15 22 8 12 1015.2 1014.0 1.4
21/11:30am 19.6 17.4 14.4 72 3.1 S 19 28 10 15 1015.4 1014.2 0.0
21/11:00am 20.7 17.6 13.4 63 4.2 SSE 22 37 12 20 1015.6 1014.4 0.0
21/10:30am 20.9 17.6 14.1 65 4.0 SSE 24 35 13 19 1015.4 1014.2 0.0
21/10:00am 21.1 18.3 13.3 61 4.5 SE 20 39 11 21 1014.8 1013.7 0.0
21/09:30am 21.0 17.1 13.4 62 4.4 ESE 26 41 14 22 1014.4 1013.3 0.0
21/09:00am 20.3 17.7 13.7 66 3.8 SE 20 32 11 17 1014.3 1013.2 6.0
21/08:30am 20.5 17.1 13.7 65 4.0 SE 24 39 13 21 1014.2 1013.1 6.0
21/08:00am 19.3 16.7 13.9 71 3.1 SE 20 32 11 17 1014.1 1013.0 6.0
21/07:30am 18.4 16.1 14.7 79 2.2 SSE 20 28 11 15 1013.9 1012.8 6.0
21/07:00am 17.7 16.4 14.8 83 1.7 SSE 15 22 8 12 1013.9 1012.8 6.0
21/06:30am 17.2 15.1 14.8 86 1.4 SSE 19 28 10 15 1013.6 1012.5 6.0
21/06:00am 16.7 14.6 14.7 88 1.2 S 19 28 10 15 1013.5 1012.4 6.0
21/05:30am 16.3 14.0 14.1 87 1.3 S 19 32 10 17 1013.2 1012.1 6.0
21/05:00am 16.3 13.8 14.1 87 1.3 S 20 35 11 19 1012.7 1011.6 6.0
21/04:30am 16.6 14.4 14.4 87 1.3 S 19 30 10 16 1012.2 1011.0 6.0
21/04:00am 16.9 15.6 14.9 88 1.2 S 15 22 8 12 1011.8 1010.6 6.0
21/03:30am 17.2 16.6 14.7 85 1.5 SSE 11 17 6 9 1011.5 1010.3 6.0
21/03:00am 17.2 15.9 14.7 85 1.5 SE 15 22 8 12 1011.0 1009.9 6.0
21/02:30am 17.0 16.9 15.9 93 0.7 SE 11 17 6 9 1010.8 1009.7 6.0
21/02:00am 16.3 15.9 16.1 99 0.1 SE 13 19 7 10 1010.8 1009.7 6.0
21/01:30am 16.4 15.9 15.8 96 0.4 SE 13 17 7 9 1010.8 1009.7 6.0
21/01:00am 16.8 15.2 15.0 89 1.1 SE 17 24 9 13 1010.9 1009.8 6.0
21/12:30am 17.3 16.6 15.5 89 1.1 SSE 13 22 7 12 1010.8 1009.7 6.0
21/12:00am 17.4 17.0 16.1 92 0.8 SSE 13 22 7 12 1010.8 1009.7 6.0
 
Date/Time
WST
Temp
°C
App
Temp
°C
Dew
Point
Rel
Hum
%
Delta-T
°C
Wind Press
QNH
hPa
Press
MSL
hPa
Rain
since 9 am
mm
Dir
 
Spd
km/h
Gust
km/h
Spd
kts
Gust
kts
20/11:30pm 17.5 17.9 16.2 92 0.8 ESE 9 17 5 9 1010.8 1009.7 6.0
20/11:00pm 17.6 16.4 16.1 91 0.9 SE 17 24 9 13 1010.7 1009.6 6.0
20/10:30pm 17.7 17.2 16.0 90 1.0 SE 13 17 7 9 1011.2 1010.0 6.0
20/10:00pm 17.7 16.9 16.0 90 1.0 SSE 15 20 8 11 1010.9 1009.8 6.0
20/09:30pm 17.7 16.5 16.0 90 1.0 SE 17 24 9 13 1010.4 1009.3 6.0
20/09:00pm 17.8 16.3 16.3 91 0.9 SSE 19 26 10 14 1009.7 1008.6 6.0
20/08:30pm 17.9 16.4 16.8 93 0.7 SSE 20 30 11 16 1009.1 1008.0 6.0
20/08:00pm 17.9 17.1 17.1 95 0.5 SSE 17 28 9 15 1008.8 1007.6 6.0
20/07:30pm 18.1 16.9 17.5 96 0.4 SSE 20 32 11 17 1008.6 1007.4 6.0
20/07:00pm 18.4 18.3 17.8 96 0.4 SSE 15 20 8 11 1008.6 1007.4 6.0
20/06:30pm 18.7 18.2 17.9 95 0.5 SSE 17 32 9 17 1008.0 1006.8 6.0
20/06:00pm 18.7 16.4 18.5 99 0.1 S 28 46 15 25 1006.7 1005.6 6.0
20/05:30pm 18.8 17.0 18.8 100 0.0 SSE 26 43 14 23 1006.9 1005.8 5.8
20/05:00pm 19.0 17.7 19.0 100 0.0 S 24 35 13 19 1005.5 1004.3 5.4
20/04:40pm 19.8 17.9 19.3 97 0.3 S 28 46 15 25 1006.3 1005.2 3.2
20/04:30pm 20.0 18.9 19.5 97 0.3 SSE 24 43 13 23 1005.7 1004.6 3.2
20/04:00pm 20.5 17.2 19.2 92 0.8 S 35 61 19 33 1004.6 1003.4 0.8
20/03:55pm 20.6 17.8 19.4 93 0.8 S 33 61 18 33 1003.7 1002.5 0.8
20/03:30pm 21.3 18.7 19.6 90 1.1 S 32 46 17 25 1004.0 1002.8 0.6
20/03:00pm 23.1 22.0 19.5 80 2.3 WSW 24 43 13 23 1004.0 1002.8 0.6
20/02:47pm 24.6 20.7 18.8 70 3.7 WNW 37 59 20 32 1004.7 1003.5 0.6
20/02:45pm 24.9 20.1 18.3 66 4.2 WNW 41 59 22 32 1005.2 1004.0 0.6
20/02:43pm 26.8 22.2 19.7 65 4.7 WNW 43 59 23 32 1004.8 1003.6 0.6
20/02:37pm 30.7 27.6 19.7 52 7.3 NNW 35 54 19 29 1002.1 1000.9 0.0
20/02:36pm 32.8 29.7 18.9 43 9.2 NNW 33 54 18 29 1001.8 1000.6 0.0
20/02:34pm 35.6 31.5 16.4 32 12.3 N 33 46 18 25 1001.1 999.9 0.0
20/02:30pm 35.2 30.2 16.0 31 12.3 N 37 50 20 27 999.7 998.5 0.0
20/02:20pm 36.3 29.9 14.3 27 13.8 NNE 41 54 22 29 998.4 997.2 0.0
20/02:00pm 37.9 31.9 14.5 25 14.8 NNE 39 59 21 32 1000.5 999.3 0.0
20/01:47pm 37.2 31.6 14.5 26 14.3 N 37 56 20 30 1001.1 999.9 0.0
20/01:30pm 37.7 32.8 14.3 25 14.7 NNE 33 50 18 27 1002.1 1000.9 0.0
20/01:09pm 36.4 32.5 14.4 27 13.8 NNW 28 46 15 25 1003.5 1002.3 0.0
20/01:00pm 37.1 32.2 14.4 26 14.3 N 33 48 18 26 1003.9 1002.7 0.0
20/12:33pm 37.1 32.6 13.8 25 14.5 NNE 30 57 16 31 1004.3 1003.1 0.0
20/12:30pm 37.5 33.9 14.1 24 14.7 NNE 26 39 14 21 1004.6 1003.4 0.0
20/12:09pm 35.3 30.9 12.9 26 13.7 N 28 46 15 25 1005.5 1004.3 0.0
20/12:00pm 35.7 31.0 13.2 26 13.9 N 30 41 16 22 1005.7 1004.6 0.0
20/11:40am 35.4 30.1 13.0 26 13.7 N 33 52 18 28 1006.0 1004.9 0.0
20/11:30am 34.3 29.4 12.6 27 13.1 N 30 43 16 23 1006.5 1005.4 0.0
20/11:20am 35.6 31.3 13.1 25 13.8 N 28 46 15 25 1006.6 1005.5 0.0
20/11:00am 33.8 28.6 12.7 27 12.8 N 32 48 17 26 1007.3 1006.1 0.0
20/10:30am 32.4 26.8 12.1 29 12.1 NNE 33 44 18 24 1008.0 1006.8 0.0
20/10:00am 32.0 26.1 12.3 30 11.8 N 35 52 19 28 1008.7 1007.5 0.0
20/09:50am 31.2 25.2 12.1 31 11.3 N 35 54 19 29 1008.7 1007.5 0.0
20/09:30am 31.7 26.0 13.0 32 11.3 N 35 46 19 25 1009.1 1008.0 0.0
20/09:00am 31.0 26.1 12.4 32 11.1 N 30 41 16 22 1009.5 1008.4 0.0
20/08:30am 29.3 24.6 9.4 29 11.2 N 24 32 13 17 1010.1 1009.0 0.0
20/08:00am 27.3 23.6 10.1 34 9.7 N 20 28 11 15 1011.0 1009.9 0.0
20/07:30am 25.8 21.3 10.0 37 8.9 NNE 24 33 13 18 1011.4 1010.2 0.0
20/07:00am 24.7 21.7 10.6 41 7.9 NNE 17 22 9 12 1011.6 1010.4 0.0
20/06:30am 23.4 19.9 10.8 45 7.1 NNE 20 26 11 14 1011.7 1010.5 0.0
20/06:00am 22.8 19.8 10.6 46 6.8 NE 17 24 9 13 1011.5 1010.3 0.0
20/05:30am 21.9 19.5 10.1 47 6.5 NE 13 19 7 10 1011.5 1010.3 0.0
20/05:00am 21.4 19.0 9.9 48 6.3 ENE 13 19 7 10 1011.4 1010.2 0.0
20/04:30am 21.7 18.9 9.9 47 6.5 ENE 15 24 8 13 1011.0 1009.9 0.0
20/04:00am 22.0 19.2 9.9 46 6.6 ENE 15 24 8 13 1011.0 1009.9 0.0
20/03:30am 22.4 19.9 9.6 44 7.0 ENE 13 22 7 12 1011.0 1009.9 0.0
20/03:00am 22.8 19.9 9.6 43 7.2 NE 15 20 8 11 1011.4 1010.2 0.0
20/02:30am 23.3 21.1 9.3 41 7.6 ENE 11 17 6 9 1011.6 1010.4 0.0
20/02:00am 23.7 21.1 9.3 40 7.9 NE 13 22 7 12 1011.4 1010.2 0.0
20/01:30am 23.9 21.3 9.5 40 7.9 NE 13 22 7 12 1011.5 1010.3 0.0
20/01:00am 24.3 21.8 9.8 40 8.0 NE 13 20 7 11 1012.4 1011.2 0.0
20/12:30am 24.6 21.0 9.7 39 8.3 NE 19 28 10 15 1012.3 1011.1 0.0
20/12:00am 24.8 21.2 9.9 39 8.3 NE 19 32 10 17 1012.3 1011.1 0.0
 
Date/Time
WST
Temp
°C
App
Temp
°C
Dew
Point
Rel
Hum
%
Delta-T
°C
Wind Press
QNH
hPa
Press
MSL
hPa
Rain
since 9 am
mm
Dir
 
Spd
km/h
Gust
km/h
Spd
kts
Gust
kts
19/11:30pm 25.2 19.9 9.9 38 8.5 ENE 28 43 15 23 1011.8 1010.6 0.0
19/11:00pm 25.5 21.1 10.5 39 8.5 E 24 35 13 19 1012.1 1010.9 0.0
19/10:30pm 26.0 20.5 10.6 38 8.7 E 30 44 16 24 1012.5 1011.4 0.0
19/10:04pm 26.7 21.5 10.4 36 9.2 E 28 48 15 26 1012.8 1011.7 0.0
19/10:00pm 26.9 22.1 10.2 35 9.4 E 26 39 14 21 1012.9 1011.8 0.0
19/09:30pm 27.7 23.2 10.0 33 10.0 E 24 39 13 21 1012.9 1011.8 0.0
19/09:00pm 29.3 24.1 5.4 22 12.6 E 22 41 12 22 1012.5 1011.4 0.0
19/08:30pm 30.1 26.2 3.2 18 13.7 E 13 17 7 9 1012.1 1010.9 0.0
19/08:00pm 30.3 26.1 1.7 16 14.3 SE 13 17 7 9 1011.7 1010.5 0.0
19/07:30pm 30.5 27.1 1.9 16 14.3 SE 9 15 5 8 1011.7 1010.5 0.0

Other Formats:

Comma delimited format used in spreadsheet applications
http://www.bom.gov.au/fwo/IDW60801/IDW60801.95642.axf

JavaScript Object Notation format (JSON) in row-major order
http://www.bom.gov.au/fwo/IDW60801/IDW60801.95642.json